Time;durP1;ratioP1;P1;durP2;ratioP2;P2;SDS_P1;SDS_P2;PMS_P1;PMS_P2;Temp;Humidity;BMP_temperature;BMP_pressure;BME280_temperature;BME280_humidity;BME280_pressure;Samples;Min_cycle;Max_cycle;Signal;HPM_P1;HPM_P2
2022/03/08 00:00:58;;;;;;;0.10;0.10;;;;;;;;;;5071758;28;20040;-61
2022/03/08 00:03:23;;;;;;;0.20;0.20;;;;;;;;;;5075162;28;20024;-60
2022/03/08 00:05:49;;;;;;;0.10;0.10;;;;;;;;;;5075235;28;20089;-61
2022/03/08 00:08:14;;;;;;;2.17;1.85;;;;;;;;;;5075001;28;20391;-59
2022/03/08 00:10:40;;;;;;;0.10;0.10;;;;;;;;;;5074626;28;20534;-60
2022/03/08 00:13:05;;;;;;;0.10;0.10;;;;;;;;;;5074858;28;20024;-61
2022/03/08 00:15:31;;;;;;;5.03;4.78;;;;;;;;;;5075102;28;20567;-61
2022/03/08 00:18:17;;;;;;;0.10;0.10;;;;;;;;;;5074887;28;20016;-61
2022/03/08 00:20:48;;;;;;;14.45;13.35;;;;;;;;;;5074846;28;20033;-62
2022/03/08 00:23:16;;;;;;;0.10;0.10;;;;;;;;;;5056704;28;20402;-62
2022/03/08 00:25:44;;;;;;;2.22;1.60;;;;;;;;;;5040048;28;20041;-60
2022/03/08 00:28:26;;;;;;;4.15;2.75;;;;;;;;;;5055324;28;20082;-60
2022/03/08 00:30:52;;;;;;;1.58;1.33;;;;;;;;;;5072027;28;20038;-62
2022/03/08 00:33:20;;;;;;;0.10;0.10;;;;;;;;;;5071956;28;20399;-62
2022/03/08 00:35:46;;;;;;;0.88;0.82;;;;;;;;;;5039057;28;20041;-61
2022/03/08 00:38:15;;;;;;;0.65;0.65;;;;;;;;;;5040347;28;20073;-60
2022/03/08 00:40:41;;;;;;;0.10;0.10;;;;;;;;;;5039990;28;20410;-62
2022/03/08 00:43:09;;;;;;;1.75;1.65;;;;;;;;;;5056524;28;20040;-61
2022/03/08 00:45:35;;;;;;;0.20;0.20;;;;;;;;;;5056209;28;20055;-61
2022/03/08 00:48:05;;;;;;;0.17;0.17;;;;;;;;;;5074560;28;20032;-60
2022/03/08 00:50:32;;;;;;;0.10;0.10;;;;;;;;;;5056133;28;20097;-61
2022/03/08 00:52:58;;;;;;;1.45;1.35;;;;;;;;;;5074299;28;20089;-61
2022/03/08 00:55:25;;;;;;;0.30;0.30;;;;;;;;;;5039928;28;20106;-60
2022/03/08 00:57:51;;;;;;;0.13;0.13;;;;;;;;;;5056232;28;20477;-61
2022/03/08 01:00:19;;;;;;;0.10;0.10;;;;;;;;;;5056152;28;20029;-61
2022/03/08 01:02:45;;;;;;;0.15;0.15;;;;;;;;;;5039545;28;20456;-61
2022/03/08 01:05:10;;;;;;;0.20;0.20;;;;;;;;;;5055999;28;20039;-60
2022/03/08 01:07:36;;;;;;;2.35;1.73;;;;;;;;;;5073903;28;20035;-60
2022/03/08 01:10:03;;;;;;;1.08;0.75;;;;;;;;;;5074033;28;20514;-60
2022/03/08 01:12:29;;;;;;;1.40;0.80;;;;;;;;;;5039523;28;20036;-61
2022/03/08 01:14:56;;;;;;;0.10;0.10;;;;;;;;;;5056105;28;20032;-60
2022/03/08 01:17:21;;;;;;;0.30;0.30;;;;;;;;;;5073850;28;20503;-61
2022/03/08 01:19:47;;;;;;;0.10;0.10;;;;;;;;;;5073708;28;20057;-61
2022/03/08 01:22:14;;;;;;;0.10;0.10;;;;;;;;;;5055857;28;20031;-61
2022/03/08 01:24:39;;;;;;;0.10;0.10;;;;;;;;;;5073877;28;20037;-60
2022/03/08 01:27:05;;;;;;;0.10;0.10;;;;;;;;;;5055890;28;20518;-61
2022/03/08 01:29:30;;;;;;;0.10;0.10;;;;;;;;;;5073771;28;20491;-60
2022/03/08 01:31:58;;;;;;;0.10;0.10;;;;;;;;;;5055753;28;20617;-61
2022/03/08 01:34:23;;;;;;;0.43;0.43;;;;;;;;;;5073471;28;20068;-60
2022/03/08 01:36:49;;;;;;;0.10;0.10;;;;;;;;;;5074054;28;20040;-60
2022/03/08 01:39:14;;;;;;;0.10;0.10;;;;;;;;;;5070714;28;20480;-61
2022/03/08 01:41:40;;;;;;;0.10;0.10;;;;;;;;;;5035657;28;20040;-60
2022/03/08 01:44:08;;;;;;;0.10;0.10;;;;;;;;;;5052995;28;20033;-60
2022/03/08 01:46:35;;;;;;;4.43;4.13;;;;;;;;;;5035467;28;20032;-60
2022/03/08 01:49:01;;;;;;;0.10;0.10;;;;;;;;;;5035256;28;20132;-60
2022/03/08 01:51:26;;;;;;;0.10;0.10;;;;;;;;;;5035830;28;20107;-60
2022/03/08 01:53:52;;;;;;;0.10;0.10;;;;;;;;;;5053319;28;20029;-61
2022/03/08 01:56:17;;;;;;;0.10;0.10;;;;;;;;;;5053400;28;20052;-61
2022/03/08 01:58:43;;;;;;;0.47;0.47;;;;;;;;;;5053132;28;20039;-61
2022/03/08 02:01:08;;;;;;;0.10;0.10;;;;;;;;;;5053287;28;20064;-61
2022/03/08 02:03:34;;;;;;;0.10;0.10;;;;;;;;;;5053016;28;20033;-61
2022/03/08 02:06:00;;;;;;;0.10;0.10;;;;;;;;;;5018910;28;20120;-60
2022/03/08 02:08:26;;;;;;;0.10;0.10;;;;;;;;;;5053244;28;20033;-60
2022/03/08 02:10:52;;;;;;;0.10;0.10;;;;;;;;;;5018807;28;20028;-62
2022/03/08 02:13:18;;;;;;;0.10;0.10;;;;;;;;;;5035323;28;20083;-61
2022/03/08 02:15:47;;;;;;;0.10;0.10;;;;;;;;;;5035098;28;20412;-61
2022/03/08 02:18:12;;;;;;;0.10;0.10;;;;;;;;;;5018519;28;20559;-60
2022/03/08 02:20:38;;;;;;;0.10;0.10;;;;;;;;;;5018625;28;20037;-61
2022/03/08 02:23:03;;;;;;;0.10;0.10;;;;;;;;;;5035113;28;20423;-61
2022/03/08 02:25:29;;;;;;;1.13;1.13;;;;;;;;;;5052966;28;20032;-61
2022/03/08 02:27:55;;;;;;;0.10;0.10;;;;;;;;;;5052678;28;20032;-61
2022/03/08 02:30:21;;;;;;;0.15;0.15;;;;;;;;;;5018324;28;20033;-62
2022/03/08 02:32:48;;;;;;;1.70;1.60;;;;;;;;;;5034833;28;20060;-61
2022/03/08 02:35:14;;;;;;;1.60;1.58;;;;;;;;;;5018561;28;20039;-61
2022/03/08 02:37:41;;;;;;;0.30;0.30;;;;;;;;;;5052799;28;20044;-60
2022/03/08 02:40:12;;;;;;;6.38;5.82;;;;;;;;;;5018370;28;20488;-60
2022/03/08 02:42:37;;;;;;;0.10;0.10;;;;;;;;;;5034874;28;20150;-60
2022/03/08 02:45:04;;;;;;;0.10;0.10;;;;;;;;;;5034797;28;20086;-60
2022/03/08 02:47:30;;;;;;;0.10;0.10;;;;;;;;;;5034427;28;20094;-60
2022/03/08 02:49:55;;;;;;;2.28;1.73;;;;;;;;;;5052563;28;20033;-60
2022/03/08 02:52:21;;;;;;;0.10;0.10;;;;;;;;;;5052434;28;20082;-61
2022/03/08 02:54:46;;;;;;;0.10;0.10;;;;;;;;;;5034753;28;20389;-60
2022/03/08 02:57:12;;;;;;;0.00;0.00;;;;;;;;;;5051286;28;20115;-60
2022/03/08 02:59:37;;;;;;;0.20;0.20;;;;;;;;;;5052261;28;20040;-60
2022/03/08 03:02:03;;;;;;;0.10;0.10;;;;;;;;;;5052085;28;20037;-60
2022/03/08 03:04:29;;;;;;;0.10;0.10;;;;;;;;;;5052548;28;20083;-60
2022/03/08 03:06:54;;;;;;;0.10;0.10;;;;;;;;;;5052240;28;20045;-60
2022/03/08 03:09:20;;;;;;;0.10;0.10;;;;;;;;;;5034831;28;20117;-60
2022/03/08 03:11:45;;;;;;;0.10;0.10;;;;;;;;;;5052396;28;20039;-60
2022/03/08 03:14:11;;;;;;;0.20;0.20;;;;;;;;;;5052236;28;20505;-60
2022/03/08 03:16:37;;;;;;;2.17;1.95;;;;;;;;;;5052027;28;20381;-60
2022/03/08 03:19:02;;;;;;;1.20;0.75;;;;;;;;;;5017705;28;20479;-60
2022/03/08 03:21:28;;;;;;;0.13;0.13;;;;;;;;;;5052135;28;20033;-60
2022/03/08 03:23:53;;;;;;;0.10;0.10;;;;;;;;;;5052137;28;20125;-60
2022/03/08 03:26:19;;;;;;;0.10;0.10;;;;;;;;;;5051964;28;20032;-60
2022/03/08 03:28:44;;;;;;;0.10;0.10;;;;;;;;;;5051832;28;20033;-61
2022/03/08 03:31:10;;;;;;;0.17;0.17;;;;;;;;;;5051826;28;20041;-60
2022/03/08 03:33:36;;;;;;;0.10;0.10;;;;;;;;;;5051726;28;20033;-61
2022/03/08 03:36:01;;;;;;;0.10;0.10;;;;;;;;;;5051976;28;20029;-60
2022/03/08 03:38:27;;;;;;;0.65;0.65;;;;;;;;;;5052312;28;20068;-60
2022/03/08 03:40:52;;;;;;;0.98;0.35;;;;;;;;;;5034252;28;20078;-61
2022/03/08 03:43:18;;;;;;;0.30;0.30;;;;;;;;;;5051921;28;20481;-60
2022/03/08 03:45:43;;;;;;;3.30;2.83;;;;;;;;;;5051977;28;20080;-60
2022/03/08 03:48:09;;;;;;;2.95;1.58;;;;;;;;;;5051569;28;20045;-60
2022/03/08 03:50:34;;;;;;;0.15;0.15;;;;;;;;;;5033951;28;20116;-60
2022/03/08 03:53:00;;;;;;;0.10;0.10;;;;;;;;;;5051725;28;20064;-60
2022/03/08 03:55:26;;;;;;;0.73;0.73;;;;;;;;;;5051955;28;20485;-60
2022/03/08 03:57:51;;;;;;;0.25;0.25;;;;;;;;;;5051648;28;20057;-62
2022/03/08 04:00:17;;;;;;;0.10;0.10;;;;;;;;;;5051496;28;20033;-60
2022/03/08 04:02:43;;;;;;;0.10;0.10;;;;;;;;;;5035143;28;20048;-60
2022/03/08 04:05:09;;;;;;;0.10;0.10;;;;;;;;;;5033152;28;20497;-61
2022/03/08 04:07:34;;;;;;;0.32;0.30;;;;;;;;;;5033972;28;20032;-60
2022/03/08 04:10:00;;;;;;;0.15;0.15;;;;;;;;;;5071207;28;20495;-60
2022/03/08 04:12:25;;;;;;;3.60;3.30;;;;;;;;;;5070967;28;20048;-60
2022/03/08 04:14:51;;;;;;;1.33;0.85;;;;;;;;;;5070818;28;20033;-61
2022/03/08 04:17:16;;;;;;;0.10;0.10;;;;;;;;;;5070882;28;20029;-60
2022/03/08 04:19:42;;;;;;;11.23;10.43;;;;;;;;;;5053131;28;20392;-63
2022/03/08 04:22:08;;;;;;;0.15;0.15;;;;;;;;;;5070879;28;21119;-61
2022/03/08 04:24:33;;;;;;;0.75;0.75;;;;;;;;;;5035984;28;20044;-61
2022/03/08 04:26:59;;;;;;;0.10;0.10;;;;;;;;;;5070042;28;20490;-61
2022/03/08 04:29:24;;;;;;;2.33;0.70;;;;;;;;;;5070659;28;20028;-64
2022/03/08 04:31:50;;;;;;;0.45;0.45;;;;;;;;;;5052780;28;20047;-60
2022/03/08 04:34:16;;;;;;;0.95;0.93;;;;;;;;;;5036170;28;20064;-60
2022/03/08 04:36:42;;;;;;;0.90;0.63;;;;;;;;;;5070862;28;20384;-59
2022/03/08 04:39:07;;;;;;;1.25;1.13;;;;;;;;;;5070836;28;20078;-59
2022/03/08 04:41:33;;;;;;;1.30;1.10;;;;;;;;;;5070492;28;20028;-59
2022/03/08 04:43:58;;;;;;;0.32;0.32;;;;;;;;;;5070938;28;20071;-61
2022/03/08 04:46:24;;;;;;;0.95;0.65;;;;;;;;;;5035773;28;20039;-62
2022/03/08 04:48:50;;;;;;;0.35;0.35;;;;;;;;;;5052289;28;20102;-63
2022/03/08 04:51:16;;;;;;;0.10;0.10;;;;;;;;;;5070667;28;20028;-60
2022/03/08 04:53:42;;;;;;;12.88;3.38;;;;;;;;;;5070496;28;20039;-64
2022/03/08 04:56:07;;;;;;;1.98;1.67;;;;;;;;;;5052227;28;20098;-61
2022/03/08 04:58:33;;;;;;;0.28;0.28;;;;;;;;;;5070218;28;20447;-60
2022/03/08 05:00:58;;;;;;;1.02;0.60;;;;;;;;;;5070013;28;20033;-60
2022/03/08 05:03:24;;;;;;;0.43;0.35;;;;;;;;;;5070251;28;20086;-61
2022/03/08 05:05:50;;;;;;;0.22;0.22;;;;;;;;;;5036011;28;20036;-59
2022/03/08 05:08:16;;;;;;;3.83;2.85;;;;;;;;;;5070250;28;20115;-61
2022/03/08 05:10:42;;;;;;;2.80;1.58;;;;;;;;;;5035525;28;20040;-61
2022/03/08 05:13:08;;;;;;;0.10;0.10;;;;;;;;;;5070201;28;20049;-58
2022/03/08 05:15:33;;;;;;;0.10;0.10;;;;;;;;;;5070178;28;20039;-60
2022/03/08 05:17:59;;;;;;;0.20;0.20;;;;;;;;;;5070102;28;20124;-62
2022/03/08 05:20:24;;;;;;;0.10;0.10;;;;;;;;;;5034202;28;20490;-60
2022/03/08 05:22:51;;;;;;;0.10;0.10;;;;;;;;;;5070049;28;20036;-63
2022/03/08 05:25:18;;;;;;;2.35;1.15;;;;;;;;;;5051751;28;20032;-61
2022/03/08 05:27:44;;;;;;;0.10;0.10;;;;;;;;;;5051997;28;20032;-59
2022/03/08 05:30:10;;;;;;;2.22;1.63;;;;;;;;;;5070060;28;20636;-60
2022/03/08 05:32:35;;;;;;;0.10;0.10;;;;;;;;;;5069346;28;20122;-62
2022/03/08 05:35:01;;;;;;;0.70;0.70;;;;;;;;;;5052185;28;20029;-60
2022/03/08 05:37:26;;;;;;;0.10;0.10;;;;;;;;;;5069861;28;20033;-61
2022/03/08 05:39:52;;;;;;;0.43;0.43;;;;;;;;;;5069905;28;20037;-61
2022/03/08 05:42:17;;;;;;;1.15;1.10;;;;;;;;;;5069483;28;20049;-60
2022/03/08 05:44:43;;;;;;;0.65;0.55;;;;;;;;;;5051477;28;20063;-60
2022/03/08 05:47:08;;;;;;;0.40;0.40;;;;;;;;;;5069438;28;20130;-61
2022/03/08 05:49:34;;;;;;;0.38;0.35;;;;;;;;;;5035027;28;20028;-62
2022/03/08 05:51:59;;;;;;;0.82;0.82;;;;;;;;;;5051764;28;20040;-60
2022/03/08 05:54:24;;;;;;;0.10;0.10;;;;;;;;;;5069352;28;20075;-65
2022/03/08 05:56:50;;;;;;;0.40;0.40;;;;;;;;;;5051532;28;20036;-62
2022/03/08 05:59:15;;;;;;;0.13;0.13;;;;;;;;;;5051669;28;20040;-59
2022/03/08 06:01:41;;;;;;;0.10;0.10;;;;;;;;;;5051291;28;20056;-60
2022/03/08 06:04:07;;;;;;;0.20;0.20;;;;;;;;;;5068774;28;20365;-62
2022/03/08 06:06:32;;;;;;;0.10;0.10;;;;;;;;;;5069668;28;20040;-61
2022/03/08 06:08:58;;;;;;;0.10;0.10;;;;;;;;;;5069112;28;20025;-62
2022/03/08 06:11:23;;;;;;;0.10;0.10;;;;;;;;;;5069880;28;20060;-61
2022/03/08 06:13:49;;;;;;;0.10;0.10;;;;;;;;;;5069172;28;20424;-61
2022/03/08 06:16:14;;;;;;;0.10;0.10;;;;;;;;;;5069016;28;20530;-61
2022/03/08 06:18:40;;;;;;;0.10;0.10;;;;;;;;;;5068756;28;20044;-65
2022/03/08 06:21:05;;;;;;;0.10;0.10;;;;;;;;;;5034484;28;20067;-62
2022/03/08 06:23:31;;;;;;;0.10;0.10;;;;;;;;;;5069333;28;20497;-61
2022/03/08 06:25:56;;;;;;;0.10;0.10;;;;;;;;;;5068946;28;20037;-61
2022/03/08 06:28:22;;;;;;;3.25;2.67;;;;;;;;;;5068668;28;20032;-61
2022/03/08 06:30:47;;;;;;;1.10;1.00;;;;;;;;;;5068969;28;20032;-61
2022/03/08 06:33:13;;;;;;;0.30;0.30;;;;;;;;;;5068676;28;20484;-61
2022/03/08 06:35:38;;;;;;;2.17;1.80;;;;;;;;;;5068977;28;20032;-61
2022/03/08 06:38:04;;;;;;;1.45;1.13;;;;;;;;;;5069015;28;20102;-62
2022/03/08 06:40:29;;;;;;;0.10;0.10;;;;;;;;;;5068773;28;20028;-61
2022/03/08 06:42:55;;;;;;;0.45;0.45;;;;;;;;;;5068965;28;20131;-69
2022/03/08 06:45:20;;;;;;;1.38;1.27;;;;;;;;;;5069173;28;20410;-68
2022/03/08 06:47:46;;;;;;;1.20;0.45;;;;;;;;;;5068398;28;20066;-69
2022/03/08 06:50:11;;;;;;;0.55;0.28;;;;;;;;;;5068419;28;20141;-70
2022/03/08 06:52:37;;;;;;;0.30;0.30;;;;;;;;;;5068544;28;20115;-69
2022/03/08 06:55:03;;;;;;;0.25;0.25;;;;;;;;;;5068669;28;20047;-69
2022/03/08 06:57:29;;;;;;;0.10;0.10;;;;;;;;;;5068921;28;20079;-68
2022/03/08 06:59:55;;;;;;;0.10;0.10;;;;;;;;;;5068519;28;20047;-69
2022/03/08 07:02:20;;;;;;;0.10;0.10;;;;;;;;;;5068424;28;20467;-71
2022/03/08 07:04:46;;;;;;;0.10;0.10;;;;;;;;;;5068221;28;20547;-69
2022/03/08 07:07:11;;;;;;;0.10;0.10;;;;;;;;;;5050828;28;20479;-68
2022/03/08 07:09:37;;;;;;;0.10;0.10;;;;;;;;;;5068571;28;20037;-70
2022/03/08 07:12:03;;;;;;;0.10;0.10;;;;;;;;;;5068458;28;20036;-66
2022/03/08 07:14:28;;;;;;;0.10;0.10;;;;;;;;;;5050176;28;20464;-68
2022/03/08 07:16:54;;;;;;;0.10;0.10;;;;;;;;;;5065696;28;20040;-69
2022/03/08 07:19:19;;;;;;;0.10;0.10;;;;;;;;;;5066249;28;20086;-67
2022/03/08 07:21:45;;;;;;;1.88;1.10;;;;;;;;;;5066613;28;20040;-70
2022/03/08 07:24:11;;;;;;;0.30;0.30;;;;;;;;;;5066002;28;20048;-69
2022/03/08 07:26:37;;;;;;;1.45;1.17;;;;;;;;;;5066365;28;20029;-67
2022/03/08 07:29:02;;;;;;;0.10;0.10;;;;;;;;;;5065583;28;20029;-70
2022/03/08 07:31:28;;;;;;;1.05;1.05;;;;;;;;;;5065813;28;20648;-71
2022/03/08 07:33:53;;;;;;;7.13;1.75;;;;;;;;;;5065607;28;20033;-70
2022/03/08 07:36:18;;;;;;;4.38;1.30;;;;;;;;;;5065773;28;20036;-70
2022/03/08 07:38:44;;;;;;;2.45;1.55;;;;;;;;;;5074024;28;20108;-71
2022/03/08 07:41:09;;;;;;;1.25;0.88;;;;;;;;;;5068985;28;20396;-71
2022/03/08 07:43:35;;;;;;;0.10;0.10;;;;;;;;;;5068295;28;20078;-70
2022/03/08 07:46:01;;;;;;;3.13;2.83;;;;;;;;;;5069614;28;20044;-70
2022/03/08 07:48:27;;;;;;;0.10;0.10;;;;;;;;;;5069258;28;20395;-70
2022/03/08 07:50:52;;;;;;;0.70;0.35;;;;;;;;;;5051601;28;20037;-71
2022/03/08 07:53:17;;;;;;;0.10;0.10;;;;;;;;;;5068730;28;20606;-71
2022/03/08 07:55:43;;;;;;;0.20;0.20;;;;;;;;;;5051585;28;20490;-69
2022/03/08 07:58:11;;;;;;;3.33;1.48;;;;;;;;;;5068922;28;20094;-72
2022/03/08 08:00:37;;;;;;;0.60;0.60;;;;;;;;;;5069422;28;20036;-69
2022/03/08 08:03:03;;;;;;;1.65;1.10;;;;;;;;;;5085355;28;20020;-70
2022/03/08 08:05:29;;;;;;;5.07;1.70;;;;;;;;;;5070580;28;20033;-72
2022/03/08 08:07:55;;;;;;;0.65;0.50;;;;;;;;;;5079190;28;20036;-69
2022/03/08 08:10:20;;;;;;;3.00;1.48;;;;;;;;;;5073459;28;20043;-70
2022/03/08 08:12:46;;;;;;;1.75;1.65;;;;;;;;;;5080073;28;20020;-70
2022/03/08 08:15:11;;;;;;;0.60;0.60;;;;;;;;;;5088144;28;20050;-70
2022/03/08 08:17:37;;;;;;;0.25;0.25;;;;;;;;;;5075803;28;20036;-69
2022/03/08 08:20:03;;;;;;;0.88;0.60;;;;;;;;;;5067238;28;20040;-69
2022/03/08 08:22:28;;;;;;;0.57;0.57;;;;;;;;;;5066990;28;20028;-69
2022/03/08 08:24:54;;;;;;;0.10;0.10;;;;;;;;;;5048636;28;20557;-67
2022/03/08 08:27:19;;;;;;;2.58;1.17;;;;;;;;;;5066262;28;20032;-69
2022/03/08 08:29:45;;;;;;;0.73;0.73;;;;;;;;;;5032393;28;20122;-68
2022/03/08 08:32:11;;;;;;;8.20;7.78;;;;;;;;;;5050080;28;20396;-68
2022/03/08 08:34:36;;;;;;;0.10;0.10;;;;;;;;;;5068756;28;20029;-69
2022/03/08 08:37:02;;;;;;;0.20;0.20;;;;;;;;;;5076462;28;20537;-69
2022/03/08 08:39:27;;;;;;;0.50;0.50;;;;;;;;;;5088213;28;20489;-70
2022/03/08 08:41:53;;;;;;;0.68;0.68;;;;;;;;;;5088788;28;20369;-71
2022/03/08 08:44:19;;;;;;;0.20;0.20;;;;;;;;;;5088408;28;20069;-71
2022/03/08 08:46:45;;;;;;;0.10;0.10;;;;;;;;;;5070878;28;20040;-72
2022/03/08 08:49:10;;;;;;;3.15;2.92;;;;;;;;;;5088435;28;20565;-69
2022/03/08 08:51:36;;;;;;;0.73;0.73;;;;;;;;;;5069489;28;20069;-71
2022/03/08 08:54:01;;;;;;;0.68;0.47;;;;;;;;;;5088125;28;20024;-71
2022/03/08 08:56:27;;;;;;;0.13;0.13;;;;;;;;;;5088341;28;20053;-70
2022/03/08 08:58:52;;;;;;;2.33;1.70;;;;;;;;;;5088234;28;20036;-71
2022/03/08 09:01:18;;;;;;;3.47;0.85;;;;;;;;;;5088396;28;20050;-70
2022/03/08 09:03:43;;;;;;;1.35;1.13;;;;;;;;;;5087918;28;20032;-67
2022/03/08 09:06:09;;;;;;;4.85;2.55;;;;;;;;;;5087762;28;20047;-74
2022/03/08 09:08:34;;;;;;;0.40;0.40;;;;;;;;;;5070037;28;20024;-69
2022/03/08 09:11:00;;;;;;;1.20;1.10;;;;;;;;;;5088158;28;20115;-68
2022/03/08 09:13:25;;;;;;;0.75;0.63;;;;;;;;;;5088627;28;20032;-70
2022/03/08 09:15:51;;;;;;;0.50;0.50;;;;;;;;;;5087602;28;20031;-71
2022/03/08 09:18:16;;;;;;;4.43;1.58;;;;;;;;;;5076555;28;20123;-71
2022/03/08 09:20:42;;;;;;;0.38;0.38;;;;;;;;;;5077851;28;20046;-67
2022/03/08 09:23:08;;;;;;;0.10;0.10;;;;;;;;;;5072230;28;20032;-70
2022/03/08 09:25:34;;;;;;;3.88;1.23;;;;;;;;;;5067990;28;20024;-71
2022/03/08 09:28:02;;;;;;;2.38;2.15;;;;;;;;;;5067198;28;20041;-72
2022/03/08 09:30:28;;;;;;;0.20;0.20;;;;;;;;;;5067525;28;20041;-69
2022/03/08 09:32:56;;;;;;;0.20;0.20;;;;;;;;;;5076902;28;20024;-74
2022/03/08 09:35:21;;;;;;;0.10;0.10;;;;;;;;;;5075552;28;20115;-72
2022/03/08 09:37:47;;;;;;;0.10;0.10;;;;;;;;;;5067299;28;20120;-72
2022/03/08 09:40:12;;;;;;;0.28;0.28;;;;;;;;;;5080097;28;20054;-70
2022/03/08 09:42:38;;;;;;;0.20;0.20;;;;;;;;;;5086449;28;20121;-71
2022/03/08 09:45:03;;;;;;;0.68;0.60;;;;;;;;;;5076138;28;20064;-71
2022/03/08 09:47:29;;;;;;;0.22;0.22;;;;;;;;;;5067870;28;20932;-73
2022/03/08 09:49:54;;;;;;;1.00;0.50;;;;;;;;;;5086589;28;20039;-74
2022/03/08 09:52:20;;;;;;;0.30;0.30;;;;;;;;;;5085470;28;20024;-71
2022/03/08 09:54:45;;;;;;;0.28;0.28;;;;;;;;;;5085033;28;20407;-69
2022/03/08 09:57:12;;;;;;;0.20;0.20;;;;;;;;;;5085684;28;20111;-72
2022/03/08 09:59:37;;;;;;;0.20;0.20;;;;;;;;;;5085602;28;20040;-72
2022/03/08 10:02:03;;;;;;;0.30;0.30;;;;;;;;;;5085673;28;20042;-73
2022/03/08 10:04:28;;;;;;;0.30;0.30;;;;;;;;;;5085403;28;20036;-74
2022/03/08 10:06:54;;;;;;;0.25;0.25;;;;;;;;;;5067998;28;20143;-70
2022/03/08 10:09:20;;;;;;;0.30;0.30;;;;;;;;;;5086730;28;20415;-73
2022/03/08 10:11:53;;;;;;;0.30;0.30;;;;;;;;;;5087467;28;20028;-73
2022/03/08 10:14:28;;;;;;;0.30;0.30;;;;;;;;;;5087152;28;20032;-74
2022/03/08 10:16:54;;;;;;;1.75;1.38;;;;;;;;;;5086339;28;20036;-74
2022/03/08 10:19:19;;;;;;;0.30;0.30;;;;;;;;;;5087147;28;20025;-74
2022/03/08 10:21:51;;;;;;;0.93;0.93;;;;;;;;;;5086745;28;20024;-75
2022/03/08 10:24:18;;;;;;;1.45;0.60;;;;;;;;;;5086219;28;20543;-75
2022/03/08 10:26:47;;;;;;;0.90;0.90;;;;;;;;;;5084592;28;20105;-74
2022/03/08 10:29:13;;;;;;;0.30;0.30;;;;;;;;;;5073643;28;20043;-75
2022/03/08 10:31:38;;;;;;;0.32;0.32;;;;;;;;;;5083769;28;20036;-73
2022/03/08 10:34:15;;;;;;;0.20;0.20;;;;;;;;;;5060158;28;20032;-74
2022/03/08 10:36:42;;;;;;;0.40;0.40;;;;;;;;;;5081842;28;20050;-75
2022/03/08 10:39:08;;;;;;;0.20;0.20;;;;;;;;;;5086162;28;20024;-73
2022/03/08 10:41:37;;;;;;;0.20;0.20;;;;;;;;;;5080809;28;20775;-77
2022/03/08 10:44:03;;;;;;;1.40;0.95;;;;;;;;;;5081916;28;20407;-74
2022/03/08 10:46:28;;;;;;;0.25;0.25;;;;;;;;;;5064048;28;20048;-75
2022/03/08 10:48:54;;;;;;;0.22;0.22;;;;;;;;;;5073587;28;20035;-74
2022/03/08 10:51:20;;;;;;;0.30;0.30;;;;;;;;;;5083833;28;20028;-75
2022/03/08 10:53:45;;;;;;;0.30;0.30;;;;;;;;;;5085890;28;20564;-75
2022/03/08 10:56:11;;;;;;;0.30;0.30;;;;;;;;;;5084128;28;20683;-74
2022/03/08 10:58:50;;;;;;;0.20;0.20;;;;;;;;;;5084245;28;20247;-73
2022/03/08 11:01:15;;;;;;;0.30;0.30;;;;;;;;;;5084988;28;20043;-75
2022/03/08 11:03:53;;;;;;;0.22;0.22;;;;;;;;;;5084591;28;20032;-73
2022/03/08 11:06:19;;;;;;;0.40;0.40;;;;;;;;;;5082919;28;20071;-72
2022/03/08 11:08:44;;;;;;;0.30;0.30;;;;;;;;;;5084116;28;20083;-73
2022/03/08 11:11:10;;;;;;;0.73;0.65;;;;;;;;;;5085318;28;20036;-71
2022/03/08 11:13:35;;;;;;;2.00;1.23;;;;;;;;;;5085307;28;20085;-69
2022/03/08 11:16:01;;;;;;;0.63;0.60;;;;;;;;;;5065387;28;20071;-72
2022/03/08 11:18:27;;;;;;;0.60;0.55;;;;;;;;;;5082648;28;20047;-71
2022/03/08 11:20:56;;;;;;;0.43;0.43;;;;;;;;;;5060939;28;20039;-71
2022/03/08 11:23:21;;;;;;;0.35;0.35;;;;;;;;;;5050658;28;20438;-71
2022/03/08 11:25:47;;;;;;;1.02;0.75;;;;;;;;;;5069988;28;20040;-74
2022/03/08 11:28:13;;;;;;;1.83;0.95;;;;;;;;;;5067846;28;20462;-70
2022/03/08 11:30:51;;;;;;;0.63;0.63;;;;;;;;;;5069873;28;20036;-69
2022/03/08 11:33:22;;;;;;;0.20;0.20;;;;;;;;;;5069606;28;20045;-70
2022/03/08 11:35:59;;;;;;;0.73;0.73;;;;;;;;;;5069141;28;20259;-70
2022/03/08 11:38:25;;;;;;;0.20;0.20;;;;;;;;;;5068674;28;20036;-70
2022/03/08 11:40:55;;;;;;;0.20;0.20;;;;;;;;;;5068696;28;20047;-69
2022/03/08 11:43:35;;;;;;;0.20;0.20;;;;;;;;;;5050506;28;20043;-70
2022/03/08 11:46:14;;;;;;;0.20;0.20;;;;;;;;;;5069109;28;20115;-70
2022/03/08 11:48:51;;;;;;;0.65;0.65;;;;;;;;;;5069249;28;20060;-70
2022/03/08 11:51:16;;;;;;;0.20;0.20;;;;;;;;;;5069678;28;20028;-69
2022/03/08 11:53:44;;;;;;;0.77;0.75;;;;;;;;;;5078049;28;20044;-69
2022/03/08 11:56:20;;;;;;;0.55;0.55;;;;;;;;;;5087605;28;20119;-69
2022/03/08 11:58:50;;;;;;;0.30;0.30;;;;;;;;;;5087771;28;20033;-69
2022/03/08 12:01:31;;;;;;;0.30;0.30;;;;;;;;;;5078994;28;20687;-69
2022/03/08 12:04:04;;;;;;;0.30;0.30;;;;;;;;;;5067092;28;20477;-69
2022/03/08 12:06:33;;;;;;;0.40;0.40;;;;;;;;;;5068717;28;20119;-69
2022/03/08 12:09:07;;;;;;;0.30;0.30;;;;;;;;;;5069105;28;20024;-67
2022/03/08 12:11:34;;;;;;;0.50;0.50;;;;;;;;;;5068838;28;20041;-68
2022/03/08 12:14:02;;;;;;;0.95;0.95;;;;;;;;;;5066195;28;20093;-68
2022/03/08 12:16:28;;;;;;;0.60;0.60;;;;;;;;;;5081205;28;20256;-68
2022/03/08 12:19:00;;;;;;;0.40;0.40;;;;;;;;;;5078461;28;20822;-69
2022/03/08 12:21:27;;;;;;;1.38;1.00;;;;;;;;;;5073121;28;20722;-68
2022/03/08 12:24:04;;;;;;;0.40;0.40;;;;;;;;;;5079388;28;20024;-68
2022/03/08 12:26:39;;;;;;;0.60;0.60;;;;;;;;;;5070118;28;20091;-70
2022/03/08 12:29:14;;;;;;;0.30;0.30;;;;;;;;;;5070606;28;20037;-69
2022/03/08 12:31:58;;;;;;;0.40;0.40;;;;;;;;;;5068762;28;20032;-69
2022/03/08 12:34:36;;;;;;;0.50;0.50;;;;;;;;;;5071470;28;20040;-69
2022/03/08 12:37:11;;;;;;;0.40;0.40;;;;;;;;;;5090621;28;20476;-69
2022/03/08 12:39:42;;;;;;;0.35;0.35;;;;;;;;;;5085516;28;20046;-68
2022/03/08 12:42:16;;;;;;;0.35;0.35;;;;;;;;;;5089528;28;20316;-68
2022/03/08 12:44:48;;;;;;;0.30;0.30;;;;;;;;;;5060794;28;20028;-69
2022/03/08 12:47:13;;;;;;;0.30;0.30;;;;;;;;;;5074857;28;20048;-68
2022/03/08 12:49:39;;;;;;;0.30;0.30;;;;;;;;;;5056422;28;20031;-68
2022/03/08 12:52:05;;;;;;;0.30;0.30;;;;;;;;;;5070476;28;20032;-67
2022/03/08 12:54:31;;;;;;;2.25;1.52;;;;;;;;;;5069151;28;20035;-68
2022/03/08 12:56:56;;;;;;;0.30;0.30;;;;;;;;;;5076563;28;20028;-69
2022/03/08 12:59:22;;;;;;;0.20;0.20;;;;;;;;;;5089069;28;20051;-67
2022/03/08 13:01:48;;;;;;;0.30;0.30;;;;;;;;;;5068449;28;20063;-67
2022/03/08 13:04:23;;;;;;;0.40;0.40;;;;;;;;;;5089834;28;20039;-66
2022/03/08 13:07:04;;;;;;;0.38;0.38;;;;;;;;;;5068846;28;20052;-67
2022/03/08 13:09:46;;;;;;;0.30;0.30;;;;;;;;;;5070000;28;20036;-69
2022/03/08 13:12:19;;;;;;;0.38;0.38;;;;;;;;;;5082048;28;20016;-67
2022/03/08 13:15:05;;;;;;;0.30;0.30;;;;;;;;;;5082159;28;20068;-68
2022/03/08 13:17:30;;;;;;;0.30;0.30;;;;;;;;;;5090192;28;20036;-67
2022/03/08 13:19:56;;;;;;;0.40;0.40;;;;;;;;;;5090652;28;20035;-69
2022/03/08 13:22:21;;;;;;;0.20;0.20;;;;;;;;;;5083959;28;20020;-68
2022/03/08 13:25:06;;;;;;;0.20;0.20;;;;;;;;;;5069024;28;20123;-67
2022/03/08 13:27:47;;;;;;;0.60;0.60;;;;;;;;;;5078666;28;20032;-67
2022/03/08 13:30:21;;;;;;;1.42;0.90;;;;;;;;;;5089669;28;20077;-67
2022/03/08 13:32:46;;;;;;;0.20;0.20;;;;;;;;;;5090352;28;20028;-67
2022/03/08 13:35:12;;;;;;;0.10;0.10;;;;;;;;;;5077542;28;20578;-67
2022/03/08 13:37:44;;;;;;;0.28;0.28;;;;;;;;;;5077846;28;20384;-68
2022/03/08 13:40:23;;;;;;;0.20;0.20;;;;;;;;;;5080475;28;20036;-67
2022/03/08 13:42:48;;;;;;;0.63;0.63;;;;;;;;;;5077722;28;20391;-68
2022/03/08 13:45:14;;;;;;;0.10;0.10;;;;;;;;;;5044675;28;20033;-69
2022/03/08 13:47:40;;;;;;;0.25;0.25;;;;;;;;;;5048573;28;20040;-69
2022/03/08 13:50:05;;;;;;;0.10;0.10;;;;;;;;;;5048351;28;20102;-70
2022/03/08 13:52:31;;;;;;;0.10;0.10;;;;;;;;;;5049284;28;20099;-69
2022/03/08 13:54:57;;;;;;;0.10;0.10;;;;;;;;;;5049407;28;20466;-69
2022/03/08 13:57:22;;;;;;;0.20;0.20;;;;;;;;;;5048260;28;20033;-68
2022/03/08 13:59:48;;;;;;;0.85;0.85;;;;;;;;;;5030666;28;20041;-68
2022/03/08 14:02:15;;;;;;;0.47;0.47;;;;;;;;;;5029349;28;20036;-68
2022/03/08 14:04:40;;;;;;;0.20;0.20;;;;;;;;;;5046428;28;20068;-67
2022/03/08 14:07:06;;;;;;;0.40;0.40;;;;;;;;;;5046722;28;20099;-68
2022/03/08 14:09:31;;;;;;;0.30;0.30;;;;;;;;;;5029245;28;20037;-69
2022/03/08 14:11:58;;;;;;;1.33;1.30;;;;;;;;;;5047395;28;20024;-68
2022/03/08 14:14:27;;;;;;;0.60;0.60;;;;;;;;;;5047190;28;20301;-70
2022/03/08 14:16:52;;;;;;;0.30;0.30;;;;;;;;;;5047899;28;20485;-68
2022/03/08 14:19:19;;;;;;;0.20;0.20;;;;;;;;;;5048903;28;20048;-67
2022/03/08 14:21:48;;;;;;;0.52;0.52;;;;;;;;;;5048905;28;20033;-72
2022/03/08 14:24:16;;;;;;;0.22;0.22;;;;;;;;;;5014707;28;20460;-68
2022/03/08 14:27:01;;;;;;;0.30;0.30;;;;;;;;;;5048993;28;20075;-69
2022/03/08 14:29:26;;;;;;;0.30;0.30;;;;;;;;;;5048863;28;20385;-67
2022/03/08 14:31:53;;;;;;;0.25;0.25;;;;;;;;;;5048874;28;20045;-70
2022/03/08 14:34:19;;;;;;;0.20;0.20;;;;;;;;;;5048413;28;20383;-68
2022/03/08 14:36:47;;;;;;;0.20;0.20;;;;;;;;;;5048801;28;20086;-67
2022/03/08 14:39:25;;;;;;;0.30;0.30;;;;;;;;;;5048755;28;20025;-69
2022/03/08 14:42:10;;;;;;;0.40;0.40;;;;;;;;;;5048752;28;20051;-67